sensor_id;sensor_type;location;lat;lon;timestamp;temperature;humidity
12887;DHT22;6511;49.746;6.094;2023-05-14T00:00:49;7.50;99.90
12887;DHT22;6511;49.746;6.094;2023-05-14T00:03:14;7.50;99.90
12887;DHT22;6511;49.746;6.094;2023-05-14T00:05:40;7.40;99.90
12887;DHT22;6511;49.746;6.094;2023-05-14T00:08:06;7.50;99.90
12887;DHT22;6511;49.746;6.094;2023-05-14T00:10:31;7.40;99.90
12887;DHT22;6511;49.746;6.094;2023-05-14T00:12:57;7.30;99.90
12887;DHT22;6511;49.746;6.094;2023-05-14T00:15:22;7.30;99.90
12887;DHT22;6511;49.746;6.094;2023-05-14T00:17:48;7.40;99.90
12887;DHT22;6511;49.746;6.094;2023-05-14T00:20:14;7.40;99.90
12887;DHT22;6511;49.746;6.094;2023-05-14T00:22:39;7.30;99.90
12887;DHT22;6511;49.746;6.094;2023-05-14T00:25:06;7.30;99.90
12887;DHT22;6511;49.746;6.094;2023-05-14T00:27:33;7.20;99.90
12887;DHT22;6511;49.746;6.094;2023-05-14T00:29:58;7.20;99.90
12887;DHT22;6511;49.746;6.094;2023-05-14T00:32:24;7.10;99.90
12887;DHT22;6511;49.746;6.094;2023-05-14T00:34:49;7.00;99.90
12887;DHT22;6511;49.746;6.094;2023-05-14T00:37:15;6.90;99.90
12887;DHT22;6511;49.746;6.094;2023-05-14T00:39:41;7.00;99.90
12887;DHT22;6511;49.746;6.094;2023-05-14T00:42:06;7.00;99.90
12887;DHT22;6511;49.746;6.094;2023-05-14T00:44:32;7.10;99.90
12887;DHT22;6511;49.746;6.094;2023-05-14T00:46:58;7.10;99.90
12887;DHT22;6511;49.746;6.094;2023-05-14T00:49:25;7.00;99.90
12887;DHT22;6511;49.746;6.094;2023-05-14T00:51:51;7.20;99.90
12887;DHT22;6511;49.746;6.094;2023-05-14T00:54:17;7.10;99.90
12887;DHT22;6511;49.746;6.094;2023-05-14T00:56:47;7.00;99.90
12887;DHT22;6511;49.746;6.094;2023-05-14T00:59:13;7.00;99.90
12887;DHT22;6511;49.746;6.094;2023-05-14T01:01:38;7.00;99.90
12887;DHT22;6511;49.746;6.094;2023-05-14T01:04:05;7.00;99.90
12887;DHT22;6511;49.746;6.094;2023-05-14T01:14:55;7.00;99.90
12887;DHT22;6511;49.746;6.094;2023-05-14T01:17:25;7.00;99.90
12887;DHT22;6511;49.746;6.094;2023-05-14T01:19:54;7.00;99.90
12887;DHT22;6511;49.746;6.094;2023-05-14T01:22:20;6.90;99.90
12887;DHT22;6511;49.746;6.094;2023-05-14T01:24:46;6.90;99.90
12887;DHT22;6511;49.746;6.094;2023-05-14T01:27:22;6.90;99.90
12887;DHT22;6511;49.746;6.094;2023-05-14T01:30:06;6.90;99.90
12887;DHT22;6511;49.746;6.094;2023-05-14T01:32:34;6.60;99.90
12887;DHT22;6511;49.746;6.094;2023-05-14T01:35:00;6.40;99.90
12887;DHT22;6511;49.746;6.094;2023-05-14T01:37:28;6.50;99.90
12887;DHT22;6511;49.746;6.094;2023-05-14T01:39:55;6.30;99.90
12887;DHT22;6511;49.746;6.094;2023-05-14T01:42:22;6.30;99.90
12887;DHT22;6511;49.746;6.094;2023-05-14T01:44:48;6.40;99.90
12887;DHT22;6511;49.746;6.094;2023-05-14T01:47:14;6.40;99.90
12887;DHT22;6511;49.746;6.094;2023-05-14T01:49:39;6.40;99.90
12887;DHT22;6511;49.746;6.094;2023-05-14T01:52:06;6.50;99.90
12887;DHT22;6511;49.746;6.094;2023-05-14T01:54:33;6.50;99.90
12887;DHT22;6511;49.746;6.094;2023-05-14T01:56:58;6.50;99.90
12887;DHT22;6511;49.746;6.094;2023-05-14T01:59:24;6.60;99.90
12887;DHT22;6511;49.746;6.094;2023-05-14T02:01:49;6.60;99.90
12887;DHT22;6511;49.746;6.094;2023-05-14T02:04:15;6.60;99.90
12887;DHT22;6511;49.746;6.094;2023-05-14T02:06:40;6.60;99.90
12887;DHT22;6511;49.746;6.094;2023-05-14T02:09:06;6.50;99.90
12887;DHT22;6511;49.746;6.094;2023-05-14T02:11:32;6.30;99.90
12887;DHT22;6511;49.746;6.094;2023-05-14T02:13:57;6.20;99.90
12887;DHT22;6511;49.746;6.094;2023-05-14T02:16:23;6.10;99.90
12887;DHT22;6511;49.746;6.094;2023-05-14T02:18:48;6.20;99.90
12887;DHT22;6511;49.746;6.094;2023-05-14T02:21:14;6.20;99.90
12887;DHT22;6511;49.746;6.094;2023-05-14T02:23:40;6.20;99.90
12887;DHT22;6511;49.746;6.094;2023-05-14T02:26:05;6.30;99.90
12887;DHT22;6511;49.746;6.094;2023-05-14T02:28:31;6.30;99.90
12887;DHT22;6511;49.746;6.094;2023-05-14T02:31:00;6.20;99.90
12887;DHT22;6511;49.746;6.094;2023-05-14T02:33:26;6.20;99.90
12887;DHT22;6511;49.746;6.094;2023-05-14T02:35:52;6.20;99.90
12887;DHT22;6511;49.746;6.094;2023-05-14T02:38:18;6.20;99.90
12887;DHT22;6511;49.746;6.094;2023-05-14T02:40:44;6.10;99.90
12887;DHT22;6511;49.746;6.094;2023-05-14T02:43:10;5.80;99.90
12887;DHT22;6511;49.746;6.094;2023-05-14T02:45:35;5.60;99.90
12887;DHT22;6511;49.746;6.094;2023-05-14T02:48:01;5.70;99.90
12887;DHT22;6511;49.746;6.094;2023-05-14T02:50:27;5.70;99.90
12887;DHT22;6511;49.746;6.094;2023-05-14T02:52:52;5.70;99.90
12887;DHT22;6511;49.746;6.094;2023-05-14T02:55:18;5.90;99.90
12887;DHT22;6511;49.746;6.094;2023-05-14T02:57:44;6.00;99.90
12887;DHT22;6511;49.746;6.094;2023-05-14T03:00:10;6.00;99.90
12887;DHT22;6511;49.746;6.094;2023-05-14T03:02:36;5.90;99.90
12887;DHT22;6511;49.746;6.094;2023-05-14T03:05:01;5.80;99.90
12887;DHT22;6511;49.746;6.094;2023-05-14T03:07:27;5.70;99.90
12887;DHT22;6511;49.746;6.094;2023-05-14T03:09:53;5.70;99.90
12887;DHT22;6511;49.746;6.094;2023-05-14T03:12:18;5.70;99.90
12887;DHT22;6511;49.746;6.094;2023-05-14T03:14:45;5.70;99.90
12887;DHT22;6511;49.746;6.094;2023-05-14T03:17:11;5.60;99.90
12887;DHT22;6511;49.746;6.094;2023-05-14T03:19:36;5.50;99.90
12887;DHT22;6511;49.746;6.094;2023-05-14T03:22:02;5.50;99.90
12887;DHT22;6511;49.746;6.094;2023-05-14T03:24:28;5.50;99.90
12887;DHT22;6511;49.746;6.094;2023-05-14T03:26:53;5.40;99.90
12887;DHT22;6511;49.746;6.094;2023-05-14T03:29:19;5.60;99.90
12887;DHT22;6511;49.746;6.094;2023-05-14T03:31:44;5.60;99.90
12887;DHT22;6511;49.746;6.094;2023-05-14T03:34:10;5.60;99.90
12887;DHT22;6511;49.746;6.094;2023-05-14T03:36:36;5.60;99.90
12887;DHT22;6511;49.746;6.094;2023-05-14T03:39:03;5.60;99.90
12887;DHT22;6511;49.746;6.094;2023-05-14T03:41:31;5.60;99.90
12887;DHT22;6511;49.746;6.094;2023-05-14T03:43:57;5.60;99.90
12887;DHT22;6511;49.746;6.094;2023-05-14T03:46:22;5.60;99.90
12887;DHT22;6511;49.746;6.094;2023-05-14T03:48:48;5.60;99.90
12887;DHT22;6511;49.746;6.094;2023-05-14T03:51:14;5.60;99.90
12887;DHT22;6511;49.746;6.094;2023-05-14T03:53:39;5.70;99.90
12887;DHT22;6511;49.746;6.094;2023-05-14T03:56:05;5.60;99.90
12887;DHT22;6511;49.746;6.094;2023-05-14T03:58:31;5.60;99.90
12887;DHT22;6511;49.746;6.094;2023-05-14T04:00:57;5.70;99.90
12887;DHT22;6511;49.746;6.094;2023-05-14T04:03:22;5.60;99.90
12887;DHT22;6511;49.746;6.094;2023-05-14T04:05:48;5.60;99.90
12887;DHT22;6511;49.746;6.094;2023-05-14T04:08:13;5.60;99.90
12887;DHT22;6511;49.746;6.094;2023-05-14T04:10:39;5.60;99.90
12887;DHT22;6511;49.746;6.094;2023-05-14T04:13:05;5.50;99.90
12887;DHT22;6511;49.746;6.094;2023-05-14T04:15:30;5.60;99.90
12887;DHT22;6511;49.746;6.094;2023-05-14T04:17:56;5.60;99.90
12887;DHT22;6511;49.746;6.094;2023-05-14T04:20:21;5.60;99.90
12887;DHT22;6511;49.746;6.094;2023-05-14T04:22:47;5.30;99.90
12887;DHT22;6511;49.746;6.094;2023-05-14T04:25:12;5.30;99.90
12887;DHT22;6511;49.746;6.094;2023-05-14T04:27:39;5.30;99.90
12887;DHT22;6511;49.746;6.094;2023-05-14T04:30:05;5.00;99.90
12887;DHT22;6511;49.746;6.094;2023-05-14T04:32:32;5.10;99.90
12887;DHT22;6511;49.746;6.094;2023-05-14T04:34:58;5.20;99.90
12887;DHT22;6511;49.746;6.094;2023-05-14T04:37:24;5.20;99.90
12887;DHT22;6511;49.746;6.094;2023-05-14T04:39:50;5.40;99.90
12887;DHT22;6511;49.746;6.094;2023-05-14T04:42:15;5.50;99.90
12887;DHT22;6511;49.746;6.094;2023-05-14T04:44:41;5.60;99.90
12887;DHT22;6511;49.746;6.094;2023-05-14T04:47:07;5.40;99.90
12887;DHT22;6511;49.746;6.094;2023-05-14T04:49:32;5.50;99.90
12887;DHT22;6511;49.746;6.094;2023-05-14T04:51:58;5.50;99.90
12887;DHT22;6511;49.746;6.094;2023-05-14T04:54:23;5.50;99.90
12887;DHT22;6511;49.746;6.094;2023-05-14T04:56:49;5.40;99.90
12887;DHT22;6511;49.746;6.094;2023-05-14T04:59:15;5.70;99.90
12887;DHT22;6511;49.746;6.094;2023-05-14T05:01:41;5.70;99.90
12887;DHT22;6511;49.746;6.094;2023-05-14T05:04:06;5.80;99.90
12887;DHT22;6511;49.746;6.094;2023-05-14T05:06:32;5.60;99.90
12887;DHT22;6511;49.746;6.094;2023-05-14T05:08:57;5.60;99.90
12887;DHT22;6511;49.746;6.094;2023-05-14T05:11:23;5.60;99.90
12887;DHT22;6511;49.746;6.094;2023-05-14T05:13:49;5.50;99.90
12887;DHT22;6511;49.746;6.094;2023-05-14T05:16:14;5.60;99.90
12887;DHT22;6511;49.746;6.094;2023-05-14T05:18:40;5.80;99.90
12887;DHT22;6511;49.746;6.094;2023-05-14T05:21:06;5.90;99.90
12887;DHT22;6511;49.746;6.094;2023-05-14T05:23:31;6.10;99.90
12887;DHT22;6511;49.746;6.094;2023-05-14T05:25:57;6.30;99.90
12887;DHT22;6511;49.746;6.094;2023-05-14T05:28:23;6.50;99.90
12887;DHT22;6511;49.746;6.094;2023-05-14T05:30:48;6.60;99.90
12887;DHT22;6511;49.746;6.094;2023-05-14T05:33:14;6.60;99.90
12887;DHT22;6511;49.746;6.094;2023-05-14T05:35:39;6.70;99.90
12887;DHT22;6511;49.746;6.094;2023-05-14T05:38:06;6.90;99.90
12887;DHT22;6511;49.746;6.094;2023-05-14T05:40:32;6.90;99.90
12887;DHT22;6511;49.746;6.094;2023-05-14T05:42:58;6.90;99.90
12887;DHT22;6511;49.746;6.094;2023-05-14T05:45:23;6.90;99.90
12887;DHT22;6511;49.746;6.094;2023-05-14T05:47:49;6.90;99.90
12887;DHT22;6511;49.746;6.094;2023-05-14T05:50:14;7.00;99.90
12887;DHT22;6511;49.746;6.094;2023-05-14T05:52:40;7.10;99.90
12887;DHT22;6511;49.746;6.094;2023-05-14T05:55:06;7.20;99.90
12887;DHT22;6511;49.746;6.094;2023-05-14T05:57:32;7.30;99.90
12887;DHT22;6511;49.746;6.094;2023-05-14T05:59:57;7.30;99.90
12887;DHT22;6511;49.746;6.094;2023-05-14T06:02:23;7.50;99.90
12887;DHT22;6511;49.746;6.094;2023-05-14T06:04:49;7.50;99.90
12887;DHT22;6511;49.746;6.094;2023-05-14T06:07:15;7.70;99.90
12887;DHT22;6511;49.746;6.094;2023-05-14T06:09:40;7.70;99.90
12887;DHT22;6511;49.746;6.094;2023-05-14T06:12:06;7.80;99.90
12887;DHT22;6511;49.746;6.094;2023-05-14T06:14:32;7.80;99.90
12887;DHT22;6511;49.746;6.094;2023-05-14T06:16:58;7.90;99.90
12887;DHT22;6511;49.746;6.094;2023-05-14T06:19:23;8.00;99.90
12887;DHT22;6511;49.746;6.094;2023-05-14T06:21:49;8.00;99.90
12887;DHT22;6511;49.746;6.094;2023-05-14T06:24:14;8.20;99.90
12887;DHT22;6511;49.746;6.094;2023-05-14T06:26:41;8.30;99.90
12887;DHT22;6511;49.746;6.094;2023-05-14T06:29:06;8.40;99.90
12887;DHT22;6511;49.746;6.094;2023-05-14T06:31:32;8.50;99.90
12887;DHT22;6511;49.746;6.094;2023-05-14T06:33:57;8.60;99.90
12887;DHT22;6511;49.746;6.094;2023-05-14T06:36:23;8.80;99.90
12887;DHT22;6511;49.746;6.094;2023-05-14T06:38:49;9.00;99.90
12887;DHT22;6511;49.746;6.094;2023-05-14T06:41:15;9.10;99.90
12887;DHT22;6511;49.746;6.094;2023-05-14T06:43:40;9.30;99.90
12887;DHT22;6511;49.746;6.094;2023-05-14T06:46:06;9.40;99.90
12887;DHT22;6511;49.746;6.094;2023-05-14T06:48:31;9.50;99.90
12887;DHT22;6511;49.746;6.094;2023-05-14T06:50:57;9.60;99.90
12887;DHT22;6511;49.746;6.094;2023-05-14T06:53:23;9.70;99.90
12887;DHT22;6511;49.746;6.094;2023-05-14T06:55:48;9.80;99.90
12887;DHT22;6511;49.746;6.094;2023-05-14T06:58:15;10.00;99.90
12887;DHT22;6511;49.746;6.094;2023-05-14T07:00:40;10.10;99.90
12887;DHT22;6511;49.746;6.094;2023-05-14T07:03:06;10.10;99.90
12887;DHT22;6511;49.746;6.094;2023-05-14T07:05:32;10.20;99.90
12887;DHT22;6511;49.746;6.094;2023-05-14T07:07:57;10.40;99.90
12887;DHT22;6511;49.746;6.094;2023-05-14T07:10:23;10.50;99.90
12887;DHT22;6511;49.746;6.094;2023-05-14T07:12:49;10.70;99.90
12887;DHT22;6511;49.746;6.094;2023-05-14T07:15:14;10.70;99.90
12887;DHT22;6511;49.746;6.094;2023-05-14T07:17:40;10.80;99.90
12887;DHT22;6511;49.746;6.094;2023-05-14T07:20:06;11.00;99.90
12887;DHT22;6511;49.746;6.094;2023-05-14T07:22:32;11.20;99.90
12887;DHT22;6511;49.746;6.094;2023-05-14T07:24:57;11.30;99.90
12887;DHT22;6511;49.746;6.094;2023-05-14T07:27:23;11.40;99.90
12887;DHT22;6511;49.746;6.094;2023-05-14T07:29:49;11.60;99.90
12887;DHT22;6511;49.746;6.094;2023-05-14T07:32:15;11.70;99.90
12887;DHT22;6511;49.746;6.094;2023-05-14T07:34:41;11.80;99.90
12887;DHT22;6511;49.746;6.094;2023-05-14T07:37:06;11.70;99.90
12887;DHT22;6511;49.746;6.094;2023-05-14T07:39:32;11.80;99.90
12887;DHT22;6511;49.746;6.094;2023-05-14T07:41:59;11.90;99.90
12887;DHT22;6511;49.746;6.094;2023-05-14T07:44:24;12.10;99.90
12887;DHT22;6511;49.746;6.094;2023-05-14T07:46:50;12.20;99.90
12887;DHT22;6511;49.746;6.094;2023-05-14T07:49:15;12.30;99.90
12887;DHT22;6511;49.746;6.094;2023-05-14T07:51:41;12.50;99.90
12887;DHT22;6511;49.746;6.094;2023-05-14T07:54:07;12.60;99.90
12887;DHT22;6511;49.746;6.094;2023-05-14T07:56:32;12.60;99.90
12887;DHT22;6511;49.746;6.094;2023-05-14T07:58:58;12.80;99.90
12887;DHT22;6511;49.746;6.094;2023-05-14T08:01:23;12.80;99.90
12887;DHT22;6511;49.746;6.094;2023-05-14T08:03:49;13.00;99.90
12887;DHT22;6511;49.746;6.094;2023-05-14T08:06:15;13.10;99.90
12887;DHT22;6511;49.746;6.094;2023-05-14T08:08:41;13.50;99.90
12887;DHT22;6511;49.746;6.094;2023-05-14T08:11:06;13.50;99.90
12887;DHT22;6511;49.746;6.094;2023-05-14T08:13:32;13.40;99.90
12887;DHT22;6511;49.746;6.094;2023-05-14T08:15:58;13.60;99.90
12887;DHT22;6511;49.746;6.094;2023-05-14T08:18:23;13.60;99.90
12887;DHT22;6511;49.746;6.094;2023-05-14T08:20:49;13.50;99.90
12887;DHT22;6511;49.746;6.094;2023-05-14T08:23:14;13.60;99.90
12887;DHT22;6511;49.746;6.094;2023-05-14T08:25:40;13.60;99.90
12887;DHT22;6511;49.746;6.094;2023-05-14T08:28:06;13.80;99.90
12887;DHT22;6511;49.746;6.094;2023-05-14T08:30:31;13.90;99.90
12887;DHT22;6511;49.746;6.094;2023-05-14T08:32:57;14.00;99.90
12887;DHT22;6511;49.746;6.094;2023-05-14T08:35:23;14.00;99.90
12887;DHT22;6511;49.746;6.094;2023-05-14T08:37:49;14.20;99.90
12887;DHT22;6511;49.746;6.094;2023-05-14T08:40:14;14.40;99.90
12887;DHT22;6511;49.746;6.094;2023-05-14T08:42:40;14.40;99.90
12887;DHT22;6511;49.746;6.094;2023-05-14T08:45:19;14.40;99.90
12887;DHT22;6511;49.746;6.094;2023-05-14T08:47:50;14.30;99.90
12887;DHT22;6511;49.746;6.094;2023-05-14T08:50:16;14.30;99.90
12887;DHT22;6511;49.746;6.094;2023-05-14T08:52:43;14.60;99.90
12887;DHT22;6511;49.746;6.094;2023-05-14T08:55:09;14.70;99.90
12887;DHT22;6511;49.746;6.094;2023-05-14T08:57:36;15.10;99.90
12887;DHT22;6511;49.746;6.094;2023-05-14T09:00:02;15.40;99.90
12887;DHT22;6511;49.746;6.094;2023-05-14T09:02:39;15.30;99.90
12887;DHT22;6511;49.746;6.094;2023-05-14T09:05:05;15.30;99.90
12887;DHT22;6511;49.746;6.094;2023-05-14T09:07:35;15.30;99.90
12887;DHT22;6511;49.746;6.094;2023-05-14T09:10:01;15.60;99.90
12887;DHT22;6511;49.746;6.094;2023-05-14T09:12:27;15.40;99.90
12887;DHT22;6511;49.746;6.094;2023-05-14T09:14:53;15.60;99.90
12887;DHT22;6511;49.746;6.094;2023-05-14T09:17:18;15.80;99.90
12887;DHT22;6511;49.746;6.094;2023-05-14T09:19:45;15.70;99.90
12887;DHT22;6511;49.746;6.094;2023-05-14T09:22:16;16.00;99.90
12887;DHT22;6511;49.746;6.094;2023-05-14T09:24:41;16.00;99.90
12887;DHT22;6511;49.746;6.094;2023-05-14T09:27:13;16.10;99.90
12887;DHT22;6511;49.746;6.094;2023-05-14T09:29:39;16.00;99.90
12887;DHT22;6511;49.746;6.094;2023-05-14T09:32:05;16.20;99.90
12887;DHT22;6511;49.746;6.094;2023-05-14T09:34:32;16.10;99.90
12887;DHT22;6511;49.746;6.094;2023-05-14T09:37:02;16.30;99.90
12887;DHT22;6511;49.746;6.094;2023-05-14T09:39:29;16.20;99.90
12887;DHT22;6511;49.746;6.094;2023-05-14T09:41:55;16.20;99.90
12887;DHT22;6511;49.746;6.094;2023-05-14T09:44:22;16.50;99.90
12887;DHT22;6511;49.746;6.094;2023-05-14T09:46:48;16.50;99.90
12887;DHT22;6511;49.746;6.094;2023-05-14T09:49:14;16.60;99.90
12887;DHT22;6511;49.746;6.094;2023-05-14T09:51:40;16.50;99.90
12887;DHT22;6511;49.746;6.094;2023-05-14T09:54:06;16.50;99.90
12887;DHT22;6511;49.746;6.094;2023-05-14T09:56:33;16.60;99.90
12887;DHT22;6511;49.746;6.094;2023-05-14T09:58:58;16.50;99.90
12887;DHT22;6511;49.746;6.094;2023-05-14T10:01:24;16.40;99.90
12887;DHT22;6511;49.746;6.094;2023-05-14T10:03:52;16.50;99.90
12887;DHT22;6511;49.746;6.094;2023-05-14T10:06:22;16.90;99.90
12887;DHT22;6511;49.746;6.094;2023-05-14T10:08:54;16.80;99.90
12887;DHT22;6511;49.746;6.094;2023-05-14T10:11:24;16.80;99.90
12887;DHT22;6511;49.746;6.094;2023-05-14T10:16:27;17.00;99.90
12887;DHT22;6511;49.746;6.094;2023-05-14T10:18:59;17.30;99.90
12887;DHT22;6511;49.746;6.094;2023-05-14T10:21:28;17.50;99.90
12887;DHT22;6511;49.746;6.094;2023-05-14T10:23:54;17.80;99.90
12887;DHT22;6511;49.746;6.094;2023-05-14T10:26:19;18.00;99.90
12887;DHT22;6511;49.746;6.094;2023-05-14T10:28:46;17.80;99.90
12887;DHT22;6511;49.746;6.094;2023-05-14T10:31:13;18.10;99.90
12887;DHT22;6511;49.746;6.094;2023-05-14T10:33:49;18.10;99.90
12887;DHT22;6511;49.746;6.094;2023-05-14T10:36:19;18.10;99.90
12887;DHT22;6511;49.746;6.094;2023-05-14T10:38:45;17.90;99.90
12887;DHT22;6511;49.746;6.094;2023-05-14T10:41:12;17.90;99.90
12887;DHT22;6511;49.746;6.094;2023-05-14T10:43:41;18.10;99.90
12887;DHT22;6511;49.746;6.094;2023-05-14T10:46:08;18.00;99.90
12887;DHT22;6511;49.746;6.094;2023-05-14T10:48:37;17.90;99.90
12887;DHT22;6511;49.746;6.094;2023-05-14T10:51:06;17.90;99.90
12887;DHT22;6511;49.746;6.094;2023-05-14T10:53:33;17.90;99.90
12887;DHT22;6511;49.746;6.094;2023-05-14T10:56:05;17.80;99.90
12887;DHT22;6511;49.746;6.094;2023-05-14T10:58:34;17.70;99.90
12887;DHT22;6511;49.746;6.094;2023-05-14T11:01:00;17.60;99.90
12887;DHT22;6511;49.746;6.094;2023-05-14T11:03:29;17.70;99.90
12887;DHT22;6511;49.746;6.094;2023-05-14T11:06:02;17.60;99.90
12887;DHT22;6511;49.746;6.094;2023-05-14T11:08:28;17.50;99.90
12887;DHT22;6511;49.746;6.094;2023-05-14T11:10:55;17.60;99.90
12887;DHT22;6511;49.746;6.094;2023-05-14T11:13:21;17.60;99.90
12887;DHT22;6511;49.746;6.094;2023-05-14T11:15:47;17.70;99.90
12887;DHT22;6511;49.746;6.094;2023-05-14T11:18:28;17.90;99.90
12887;DHT22;6511;49.746;6.094;2023-05-14T11:21:00;18.30;99.90
12887;DHT22;6511;49.746;6.094;2023-05-14T11:23:26;18.50;99.90
12887;DHT22;6511;49.746;6.094;2023-05-14T11:25:53;18.70;99.90
12887;DHT22;6511;49.746;6.094;2023-05-14T11:28:20;18.70;99.90
12887;DHT22;6511;49.746;6.094;2023-05-14T11:30:47;18.70;99.90
12887;DHT22;6511;49.746;6.094;2023-05-14T11:33:13;18.70;99.90
12887;DHT22;6511;49.746;6.094;2023-05-14T11:35:39;18.80;99.90
12887;DHT22;6511;49.746;6.094;2023-05-14T11:38:13;18.90;99.90
12887;DHT22;6511;49.746;6.094;2023-05-14T11:40:38;19.00;99.90
12887;DHT22;6511;49.746;6.094;2023-05-14T11:43:04;19.30;99.90
12887;DHT22;6511;49.746;6.094;2023-05-14T11:45:30;19.30;99.90
12887;DHT22;6511;49.746;6.094;2023-05-14T11:47:57;19.40;99.90
12887;DHT22;6511;49.746;6.094;2023-05-14T11:50:22;19.50;99.90
12887;DHT22;6511;49.746;6.094;2023-05-14T11:52:48;19.50;99.90
12887;DHT22;6511;49.746;6.094;2023-05-14T11:55:15;19.40;99.90
12887;DHT22;6511;49.746;6.094;2023-05-14T11:57:41;19.60;99.90
12887;DHT22;6511;49.746;6.094;2023-05-14T12:00:08;19.30;99.90
12887;DHT22;6511;49.746;6.094;2023-05-14T12:02:35;19.30;99.90
12887;DHT22;6511;49.746;6.094;2023-05-14T12:05:01;19.30;99.90
12887;DHT22;6511;49.746;6.094;2023-05-14T12:07:28;19.50;99.90
12887;DHT22;6511;49.746;6.094;2023-05-14T12:10:00;19.40;99.90
12887;DHT22;6511;49.746;6.094;2023-05-14T12:12:26;19.10;99.90
12887;DHT22;6511;49.746;6.094;2023-05-14T12:14:51;18.70;99.90
12887;DHT22;6511;49.746;6.094;2023-05-14T12:17:18;18.20;99.90
12887;DHT22;6511;49.746;6.094;2023-05-14T12:19:49;17.90;99.90
12887;DHT22;6511;49.746;6.094;2023-05-14T12:22:24;17.90;99.90
12887;DHT22;6511;49.746;6.094;2023-05-14T12:24:57;17.80;99.90
12887;DHT22;6511;49.746;6.094;2023-05-14T12:27:24;17.90;99.90
12887;DHT22;6511;49.746;6.094;2023-05-14T12:30:01;18.30;99.90
12887;DHT22;6511;49.746;6.094;2023-05-14T12:32:31;18.50;99.90
12887;DHT22;6511;49.746;6.094;2023-05-14T12:34:56;18.80;99.90
12887;DHT22;6511;49.746;6.094;2023-05-14T12:37:22;19.00;99.90
12887;DHT22;6511;49.746;6.094;2023-05-14T12:39:48;19.20;99.90
12887;DHT22;6511;49.746;6.094;2023-05-14T12:42:14;19.20;99.90
12887;DHT22;6511;49.746;6.094;2023-05-14T12:44:40;19.30;99.90
12887;DHT22;6511;49.746;6.094;2023-05-14T12:47:06;19.60;99.90
12887;DHT22;6511;49.746;6.094;2023-05-14T12:49:32;19.40;99.90
12887;DHT22;6511;49.746;6.094;2023-05-14T12:51:57;18.60;99.90
12887;DHT22;6511;49.746;6.094;2023-05-14T12:54:23;18.20;99.90
12887;DHT22;6511;49.746;6.094;2023-05-14T12:56:49;18.00;99.90
12887;DHT22;6511;49.746;6.094;2023-05-14T12:59:14;17.90;99.90
12887;DHT22;6511;49.746;6.094;2023-05-14T13:01:40;17.80;99.90
12887;DHT22;6511;49.746;6.094;2023-05-14T13:04:06;17.80;99.90
12887;DHT22;6511;49.746;6.094;2023-05-14T13:06:33;17.80;99.90
12887;DHT22;6511;49.746;6.094;2023-05-14T13:08:59;17.70;99.90
12887;DHT22;6511;49.746;6.094;2023-05-14T13:11:26;17.70;99.90
12887;DHT22;6511;49.746;6.094;2023-05-14T13:13:54;17.70;99.90
12887;DHT22;6511;49.746;6.094;2023-05-14T13:16:20;17.70;99.90
12887;DHT22;6511;49.746;6.094;2023-05-14T13:18:45;18.10;99.90
12887;DHT22;6511;49.746;6.094;2023-05-14T13:21:11;18.30;99.90
12887;DHT22;6511;49.746;6.094;2023-05-14T13:23:37;18.80;99.90
12887;DHT22;6511;49.746;6.094;2023-05-14T13:26:02;19.00;99.90
12887;DHT22;6511;49.746;6.094;2023-05-14T13:28:28;19.10;99.90
12887;DHT22;6511;49.746;6.094;2023-05-14T13:31:07;19.20;99.90
12887;DHT22;6511;49.746;6.094;2023-05-14T13:33:39;19.60;99.90
12887;DHT22;6511;49.746;6.094;2023-05-14T13:36:05;19.70;99.90
12887;DHT22;6511;49.746;6.094;2023-05-14T13:38:32;19.60;99.90
12887;DHT22;6511;49.746;6.094;2023-05-14T13:40:58;19.60;99.90
12887;DHT22;6511;49.746;6.094;2023-05-14T13:43:27;20.00;99.90
12887;DHT22;6511;49.746;6.094;2023-05-14T13:45:53;20.10;99.90
12887;DHT22;6511;49.746;6.094;2023-05-14T13:48:19;19.70;99.90
12887;DHT22;6511;49.746;6.094;2023-05-14T13:50:45;19.50;99.90
12887;DHT22;6511;49.746;6.094;2023-05-14T13:53:10;19.40;99.90
12887;DHT22;6511;49.746;6.094;2023-05-14T13:55:36;19.60;99.90
12887;DHT22;6511;49.746;6.094;2023-05-14T13:58:02;19.70;99.90
12887;DHT22;6511;49.746;6.094;2023-05-14T14:00:27;19.90;99.90
12887;DHT22;6511;49.746;6.094;2023-05-14T14:02:53;19.60;99.90
12887;DHT22;6511;49.746;6.094;2023-05-14T14:05:19;19.20;99.90
12887;DHT22;6511;49.746;6.094;2023-05-14T14:07:44;19.70;99.90
12887;DHT22;6511;49.746;6.094;2023-05-14T14:10:11;19.90;99.90
12887;DHT22;6511;49.746;6.094;2023-05-14T14:12:37;19.90;99.90
12887;DHT22;6511;49.746;6.094;2023-05-14T14:15:04;19.80;99.90
12887;DHT22;6511;49.746;6.094;2023-05-14T14:17:29;19.60;99.90
12887;DHT22;6511;49.746;6.094;2023-05-14T14:19:55;19.40;99.90
12887;DHT22;6511;49.746;6.094;2023-05-14T14:22:20;19.30;99.90
12887;DHT22;6511;49.746;6.094;2023-05-14T14:24:46;19.20;99.90
12887;DHT22;6511;49.746;6.094;2023-05-14T14:27:11;19.10;99.90
12887;DHT22;6511;49.746;6.094;2023-05-14T14:29:37;18.90;99.90
12887;DHT22;6511;49.746;6.094;2023-05-14T14:32:03;18.90;99.90
12887;DHT22;6511;49.746;6.094;2023-05-14T14:34:29;19.10;99.90
12887;DHT22;6511;49.746;6.094;2023-05-14T14:36:54;19.20;99.90
12887;DHT22;6511;49.746;6.094;2023-05-14T14:39:20;19.40;99.90
12887;DHT22;6511;49.746;6.094;2023-05-14T14:41:45;19.40;99.90
12887;DHT22;6511;49.746;6.094;2023-05-14T14:44:12;19.50;99.90
12887;DHT22;6511;49.746;6.094;2023-05-14T14:46:37;19.70;99.90
12887;DHT22;6511;49.746;6.094;2023-05-14T14:49:03;19.80;99.90
12887;DHT22;6511;49.746;6.094;2023-05-14T14:51:29;19.70;99.90
12887;DHT22;6511;49.746;6.094;2023-05-14T14:53:55;19.40;99.90
12887;DHT22;6511;49.746;6.094;2023-05-14T14:56:21;19.40;99.90
12887;DHT22;6511;49.746;6.094;2023-05-14T14:58:46;19.70;99.90
12887;DHT22;6511;49.746;6.094;2023-05-14T15:01:12;19.80;99.90
12887;DHT22;6511;49.746;6.094;2023-05-14T15:03:38;20.00;99.90
12887;DHT22;6511;49.746;6.094;2023-05-14T15:06:03;19.80;99.90
12887;DHT22;6511;49.746;6.094;2023-05-14T15:08:29;19.90;99.90
12887;DHT22;6511;49.746;6.094;2023-05-14T15:10:55;20.10;99.90
12887;DHT22;6511;49.746;6.094;2023-05-14T15:13:21;19.90;99.90
12887;DHT22;6511;49.746;6.094;2023-05-14T15:15:49;19.90;99.90
12887;DHT22;6511;49.746;6.094;2023-05-14T15:18:15;19.80;99.90
12887;DHT22;6511;49.746;6.094;2023-05-14T15:20:40;19.80;99.90
12887;DHT22;6511;49.746;6.094;2023-05-14T15:23:06;19.80;99.90
12887;DHT22;6511;49.746;6.094;2023-05-14T15:25:32;19.80;99.90
12887;DHT22;6511;49.746;6.094;2023-05-14T15:27:57;19.90;99.90
12887;DHT22;6511;49.746;6.094;2023-05-14T15:30:23;19.80;99.90
12887;DHT22;6511;49.746;6.094;2023-05-14T15:32:49;19.70;99.90
12887;DHT22;6511;49.746;6.094;2023-05-14T15:35:14;19.80;99.90
12887;DHT22;6511;49.746;6.094;2023-05-14T15:37:42;19.80;99.90
12887;DHT22;6511;49.746;6.094;2023-05-14T15:40:08;19.80;99.90
12887;DHT22;6511;49.746;6.094;2023-05-14T15:42:40;20.00;99.90
12887;DHT22;6511;49.746;6.094;2023-05-14T15:45:12;19.90;99.90
12887;DHT22;6511;49.746;6.094;2023-05-14T15:47:38;20.00;99.90
12887;DHT22;6511;49.746;6.094;2023-05-14T15:50:07;20.00;99.90
12887;DHT22;6511;49.746;6.094;2023-05-14T15:52:33;19.90;99.90
12887;DHT22;6511;49.746;6.094;2023-05-14T15:55:00;19.80;99.90
12887;DHT22;6511;49.746;6.094;2023-05-14T15:57:26;19.90;99.90